Time;durP1;ratioP1;P1;durP2;ratioP2;P2;SDS_P1;SDS_P2;PMS_P1;PMS_P2;Temp;Humidity;BMP_temperature;BMP_pressure;BME280_temperature;BME280_humidity;BME280_pressure;Samples;Min_cycle;Max_cycle;Signal;HPM_P1;HPM_P2
2023/02/20 00:01:13;;;;;;;4.57;0.50;;;5.60;99.90;;;;;;5013556;28;20421;-82
2023/02/20 00:03:39;;;;;;;4.50;1.23;;;5.60;99.90;;;;;;5012169;28;20177;-82
2023/02/20 00:06:04;;;;;;;3.57;0.90;;;5.60;99.90;;;;;;5011603;28;20179;-83
2023/02/20 00:08:30;;;;;;;3.50;0.53;;;5.70;99.90;;;;;;5013471;28;20550;-82
2023/02/20 00:10:55;;;;;;;3.80;0.60;;;5.70;99.90;;;;;;5013359;28;20191;-82
2023/02/20 00:13:21;;;;;;;4.87;1.13;;;5.70;99.90;;;;;;5012978;28;20543;-83
2023/02/20 00:15:49;;;;;;;3.63;1.03;;;5.70;99.90;;;;;;5028628;28;20657;-82
2023/02/20 00:18:15;;;;;;;1.70;0.97;;;5.70;99.90;;;;;;5013126;28;20207;-83
2023/02/20 00:20:40;;;;;;;4.77;1.77;;;5.70;99.90;;;;;;5013308;28;20411;-82
2023/02/20 00:23:06;;;;;;;4.23;1.13;;;5.70;99.90;;;;;;5013232;28;20178;-83
2023/02/20 00:25:31;;;;;;;2.20;0.80;;;5.70;99.90;;;;;;5013085;28;20168;-82
2023/02/20 00:27:56;;;;;;;4.47;1.47;;;5.70;99.90;;;;;;5013205;28;20168;-83
2023/02/20 00:30:23;;;;;;;10.00;1.43;;;5.70;99.90;;;;;;5011597;28;20725;-81
2023/02/20 00:32:50;;;;;;;3.60;1.00;;;5.70;99.90;;;;;;5013053;28;20206;-82
2023/02/20 00:35:17;;;;;;;6.60;2.20;;;5.70;99.90;;;;;;5011684;28;20415;-83
2023/02/20 00:37:43;;;;;;;1.90;1.10;;;5.70;99.90;;;;;;5012922;28;20474;-82
2023/02/20 00:40:10;;;;;;;5.10;2.00;;;5.70;99.90;;;;;;5012986;28;20411;-81
2023/02/20 00:42:35;;;;;;;4.20;1.30;;;5.70;99.90;;;;;;5013079;28;20423;-83
2023/02/20 00:45:02;;;;;;;2.67;0.90;;;5.70;99.90;;;;;;5011220;28;20462;-83
2023/02/20 00:47:27;;;;;;;2.93;1.73;;;5.70;99.90;;;;;;5011804;28;20184;-82
2023/02/20 00:49:53;;;;;;;8.03;2.63;;;5.70;99.90;;;;;;5012996;28;20455;-84
2023/02/20 00:52:18;;;;;;;4.47;1.30;;;5.70;99.90;;;;;;5009722;28;20187;-83
2023/02/20 00:54:44;;;;;;;3.00;1.20;;;5.80;99.90;;;;;;5003320;28;20185;-83
2023/02/20 00:57:09;;;;;;;2.60;1.10;;;5.70;99.90;;;;;;4993266;28;20733;-82
2023/02/20 00:59:34;;;;;;;4.67;0.93;;;5.70;99.90;;;;;;5008048;28;20191;-83
2023/02/20 01:02:00;;;;;;;2.00;1.07;;;5.80;99.90;;;;;;4993016;28;20198;-83
2023/02/20 01:04:26;;;;;;;2.60;1.70;;;5.80;99.90;;;;;;4993366;28;20194;-83
2023/02/20 01:06:51;;;;;;;3.97;1.60;;;5.80;99.90;;;;;;4993230;28;20171;-82
2023/02/20 01:09:17;;;;;;;3.93;1.83;;;5.80;99.90;;;;;;4991827;28;20210;-82
2023/02/20 01:11:43;;;;;;;2.87;1.47;;;5.80;99.90;;;;;;4991713;28;20169;-83
2023/02/20 01:14:09;;;;;;;4.90;1.90;;;5.80;99.90;;;;;;4991647;28;20175;-82
2023/02/20 01:16:35;;;;;;;6.10;1.07;;;5.80;99.90;;;;;;4993194;28;22358;-82
2023/02/20 01:19:00;;;;;;;4.20;1.47;;;5.80;99.90;;;;;;4995411;28;20412;-83
2023/02/20 01:21:26;;;;;;;6.23;2.50;;;5.80;99.90;;;;;;4996882;28;20220;-83
2023/02/20 01:23:51;;;;;;;3.30;1.47;;;5.80;99.90;;;;;;4996862;28;20182;-83
2023/02/20 01:26:17;;;;;;;4.33;1.60;;;5.80;99.90;;;;;;4996791;28;20204;-83
2023/02/20 01:28:48;;;;;;;4.30;1.73;;;5.80;99.90;;;;;;4996358;28;20184;-82
2023/02/20 01:31:14;;;;;;;6.10;1.83;;;5.80;99.90;;;;;;4996645;28;20187;-81
2023/02/20 01:33:41;;;;;;;4.80;1.73;;;5.80;99.90;;;;;;4996598;28;20414;-82
2023/02/20 01:36:07;;;;;;;3.40;1.67;;;5.80;99.90;;;;;;4996607;28;20251;-82
2023/02/20 01:38:42;;;;;;;3.93;1.50;;;5.80;99.90;;;;;;4996524;28;20479;-82
2023/02/20 01:41:08;;;;;;;3.20;1.13;;;5.80;99.90;;;;;;4996465;28;20761;-82
2023/02/20 01:43:34;;;;;;;6.80;1.70;;;5.90;99.90;;;;;;4995994;28;20430;-81
2023/02/20 01:46:25;;;;;;;5.20;2.23;;;5.90;99.90;;;;;;4996136;28;20467;-81
2023/02/20 01:48:51;;;;;;;5.00;1.50;;;5.90;99.90;;;;;;4996237;28;20913;-82
2023/02/20 01:51:16;;;;;;;6.47;1.80;;;5.90;99.90;;;;;;4996281;28;20550;-81
2023/02/20 01:53:42;;;;;;;3.20;1.80;;;5.90;99.90;;;;;;5004067;28;20652;-82
2023/02/20 01:56:09;;;;;;;3.17;1.57;;;5.90;99.90;;;;;;4997931;28;20322;-82
2023/02/20 01:58:45;;;;;;;2.10;1.77;;;5.90;99.90;;;;;;4995739;28;20478;-82
2023/02/20 02:01:11;;;;;;;2.47;1.33;;;6.00;99.90;;;;;;4996006;28;20423;-82
2023/02/20 02:03:40;;;;;;;3.10;1.40;;;6.00;99.90;;;;;;4995999;28;20514;-82
2023/02/20 02:06:08;;;;;;;4.50;1.00;;;6.00;99.90;;;;;;5011100;28;20420;-82
2023/02/20 02:08:36;;;;;;;5.23;1.47;;;6.00;99.90;;;;;;4996001;28;20423;-82
2023/02/20 02:11:09;;;;;;;4.23;1.60;;;6.00;99.90;;;;;;4995943;28;20441;-81
2023/02/20 02:13:36;;;;;;;4.93;1.70;;;6.00;99.90;;;;;;4995677;28;20429;-82
2023/02/20 02:16:32;;;;;;;6.03;1.43;;;6.00;99.90;;;;;;4995804;28;20414;-82
2023/02/20 02:19:42;;;;;;;2.90;1.27;;;6.00;99.90;;;;;;4995890;28;20513;-83
2023/02/20 02:22:49;;;;;;;3.83;1.47;;;6.10;99.90;;;;;;4935696;29;20433;-83
2023/02/20 02:25:31;;;;;;;5.07;1.07;;;6.10;99.90;;;;;;4935728;29;20427;-82
2023/02/20 02:28:33;;;;;;;2.50;0.97;;;6.20;99.90;;;;;;4986870;28;20429;-82
2023/02/20 02:31:39;;;;;;;5.27;2.30;;;6.20;99.90;;;;;;4994350;28;20946;-82
2023/02/20 02:34:25;;;;;;;3.00;1.30;;;6.20;99.90;;;;;;4995589;28;20413;-82
2023/02/20 02:37:02;;;;;;;2.73;0.97;;;6.30;99.90;;;;;;4995434;28;20989;-83
2023/02/20 02:39:52;;;;;;;4.53;1.20;;;6.30;99.90;;;;;;4995455;28;20776;-82
2023/02/20 02:42:32;;;;;;;3.70;1.53;;;6.30;99.90;;;;;;4995341;28;20925;-82
2023/02/20 02:45:15;;;;;;;2.80;1.70;;;6.30;99.90;;;;;;4993556;28;20480;-82
2023/02/20 02:48:05;;;;;;;4.93;1.57;;;6.30;99.90;;;;;;4995336;28;20414;-82
2023/02/20 02:50:37;;;;;;;4.70;1.50;;;6.30;99.90;;;;;;4994075;28;20812;-82
2023/02/20 02:53:05;;;;;;;6.90;1.70;;;6.20;99.90;;;;;;4999322;28;20474;-82
2023/02/20 02:55:35;;;;;;;3.03;1.63;;;6.20;99.90;;;;;;5001857;28;20784;-81
2023/02/20 02:58:02;;;;;;;4.20;1.30;;;6.20;99.90;;;;;;4994675;28;20508;-82
2023/02/20 03:00:43;;;;;;;2.70;1.20;;;6.30;99.90;;;;;;4995020;28;20432;-82
2023/02/20 03:03:20;;;;;;;5.30;1.40;;;6.30;99.90;;;;;;4994984;28;20940;-82
2023/02/20 03:05:52;;;;;;;3.40;1.57;;;6.30;99.90;;;;;;4994768;28;20500;-82
2023/02/20 03:08:29;;;;;;;4.70;1.57;;;6.40;99.90;;;;;;4994722;28;20466;-82
2023/02/20 03:10:55;;;;;;;5.13;2.43;;;6.40;99.90;;;;;;4994917;28;20420;-82
2023/02/20 03:16:07;;;;;;;6.20;2.03;;;6.50;99.90;;;;;;4994785;28;20934;-82
2023/02/20 03:18:39;;;;;;;4.53;2.63;;;6.40;99.90;;;;;;4994583;28;20974;-82
2023/02/20 03:21:12;;;;;;;4.53;2.00;;;6.40;99.90;;;;;;4994604;28;20428;-82
2023/02/20 03:23:42;;;;;;;3.67;2.30;;;6.50;99.90;;;;;;4994543;28;20416;-81
2023/02/20 03:26:21;;;;;;;6.10;3.07;;;6.40;99.90;;;;;;5009740;28;20507;-82
2023/02/20 03:29:23;;;;;;;4.33;2.33;;;6.40;99.90;;;;;;4994152;28;20417;-82
2023/02/20 03:43:27;;;;;;;6.03;2.97;;;6.40;99.90;;;;;;4994277;28;20470;-84
2023/02/20 03:46:02;;;;;;;5.47;2.23;;;6.40;99.90;;;;;;4994209;28;20472;-81
2023/02/20 03:48:55;;;;;;;4.63;1.90;;;6.40;99.90;;;;;;4994357;28;20776;-83
2023/02/20 03:51:22;;;;;;;3.50;2.10;;;6.40;99.90;;;;;;4994330;28;20490;-82
2023/02/20 03:53:48;;;;;;;4.57;2.40;;;6.40;99.90;;;;;;4994136;28;20415;-83
2023/02/20 03:56:23;;;;;;;5.60;2.80;;;6.40;99.90;;;;;;4994073;28;20424;-82
2023/02/20 03:58:54;;;;;;;4.60;2.70;;;6.40;99.90;;;;;;4993738;28;20487;-83
2023/02/20 04:01:22;;;;;;;6.97;2.83;;;6.40;99.90;;;;;;4994111;28;20474;-82
2023/02/20 04:03:50;;;;;;;4.10;2.37;;;6.40;99.90;;;;;;4994012;28;20468;-83
2023/02/20 04:06:18;;;;;;;6.20;2.40;;;6.40;99.90;;;;;;4994025;28;20515;-83
2023/02/20 04:08:56;;;;;;;4.23;2.93;;;6.50;99.90;;;;;;5008991;28;20428;-84
2023/02/20 04:11:39;;;;;;;7.57;3.73;;;6.40;99.90;;;;;;4993923;28;20409;-82
2023/02/20 04:14:06;;;;;;;5.00;2.30;;;6.40;99.90;;;;;;5008687;28;20926;-83
2023/02/20 04:16:41;;;;;;;4.30;2.50;;;6.40;99.90;;;;;;5008902;28;20965;-83
2023/02/20 04:19:07;;;;;;;7.73;3.23;;;6.30;99.90;;;;;;4993936;28;20421;-83
2023/02/20 04:21:58;;;;;;;6.00;3.70;;;6.30;99.90;;;;;;4993777;28;20956;-81
2023/02/20 04:24:45;;;;;;;5.80;3.13;;;6.30;99.90;;;;;;5008929;28;20517;-82
2023/02/20 04:27:11;;;;;;;5.77;3.23;;;6.30;99.90;;;;;;4993766;28;20416;-82
2023/02/20 04:29:37;;;;;;;5.97;3.50;;;6.30;99.90;;;;;;4993502;28;20422;-82
2023/02/20 04:32:03;;;;;;;6.60;2.90;;;6.30;99.90;;;;;;4993659;28;20479;-81
2023/02/20 04:34:32;;;;;;;5.40;3.97;;;6.30;99.90;;;;;;4993711;28;20173;-83
2023/02/20 04:37:05;;;;;;;5.30;3.50;;;6.20;99.90;;;;;;4998643;28;20234;-82
2023/02/20 04:39:30;;;;;;;6.03;3.20;;;6.20;99.90;;;;;;5013317;28;20920;-82
2023/02/20 04:41:56;;;;;;;7.30;2.60;;;6.20;99.90;;;;;;5013285;28;20434;-81
2023/02/20 04:44:30;;;;;;;5.70;3.63;;;6.10;99.90;;;;;;5012649;28;20744;-82
2023/02/20 04:46:56;;;;;;;7.83;3.43;;;6.20;99.90;;;;;;5013202;28;20589;-82
2023/02/20 04:49:22;;;;;;;8.33;4.33;;;6.20;99.90;;;;;;5011978;28;20963;-83
2023/02/20 04:51:47;;;;;;;7.17;3.57;;;6.20;99.90;;;;;;5013573;28;20424;-82
2023/02/20 04:54:13;;;;;;;6.43;3.97;;;6.30;99.90;;;;;;5017063;28;20172;-82
2023/02/20 04:56:38;;;;;;;6.70;3.63;;;6.20;99.90;;;;;;5017013;28;20172;-83
2023/02/20 04:59:04;;;;;;;6.20;4.63;;;6.30;99.90;;;;;;5016452;28;20319;-82
2023/02/20 05:01:29;;;;;;;7.67;4.27;;;6.20;99.90;;;;;;5016877;28;20186;-82
2023/02/20 05:03:55;;;;;;;7.33;4.20;;;6.10;99.90;;;;;;5016892;28;20263;-82
2023/02/20 05:06:21;;;;;;;7.63;5.27;;;6.20;99.90;;;;;;5016737;28;20639;-82
2023/02/20 05:08:46;;;;;;;6.83;4.53;;;6.20;99.90;;;;;;5016811;28;20184;-82
2023/02/20 05:11:12;;;;;;;7.47;4.30;;;6.20;99.90;;;;;;5016611;28;20183;-82
2023/02/20 05:13:37;;;;;;;7.80;4.63;;;6.20;99.90;;;;;;5016330;28;20525;-82
2023/02/20 05:16:03;;;;;;;7.47;4.20;;;6.20;99.90;;;;;;5016734;28;20174;-81
2023/02/20 05:18:32;;;;;;;6.30;4.70;;;6.30;99.90;;;;;;5016373;28;20294;-82
2023/02/20 05:23:45;;;;;;;10.70;5.07;;;6.20;99.90;;;;;;5016801;28;20422;-81
2023/02/20 05:26:12;;;;;;;9.80;5.27;;;6.20;99.90;;;;;;5016331;28;20415;-81
2023/02/20 05:28:41;;;;;;;10.20;4.50;;;6.30;99.90;;;;;;5014763;28;20814;-82
2023/02/20 05:31:06;;;;;;;10.00;6.30;;;6.30;99.90;;;;;;5016351;28;20426;-81
2023/02/20 05:33:35;;;;;;;10.80;5.73;;;6.30;99.90;;;;;;5014942;28;20752;-82
2023/02/20 05:36:00;;;;;;;8.70;5.50;;;6.40;99.90;;;;;;5015986;28;20264;-82
2023/02/20 05:38:26;;;;;;;9.50;6.30;;;6.40;99.90;;;;;;5016186;28;20559;-81
2023/02/20 05:40:51;;;;;;;12.13;5.80;;;6.40;99.90;;;;;;5016232;28;20165;-82
2023/02/20 05:43:17;;;;;;;10.53;6.60;;;6.40;99.90;;;;;;5014573;28;20169;-82
2023/02/20 05:45:43;;;;;;;10.23;6.13;;;6.40;99.90;;;;;;5015952;28;20577;-82
2023/02/20 05:48:11;;;;;;;10.87;5.93;;;6.40;99.90;;;;;;5016049;28;20170;-82
2023/02/20 05:50:36;;;;;;;8.67;4.83;;;6.50;99.90;;;;;;5014467;28;20190;-81
2023/02/20 05:53:02;;;;;;;10.03;5.70;;;6.50;99.90;;;;;;5015677;28;20899;-82
2023/02/20 05:55:29;;;;;;;10.10;5.60;;;6.40;99.90;;;;;;5015955;28;20184;-82
2023/02/20 05:57:55;;;;;;;12.63;7.07;;;6.40;99.90;;;;;;5015519;28;20576;-82
2023/02/20 06:00:21;;;;;;;11.30;6.40;;;6.40;99.90;;;;;;5015876;28;20411;-83
2023/02/20 06:02:47;;;;;;;12.43;5.60;;;6.40;99.90;;;;;;5014610;28;20447;-83
2023/02/20 06:05:13;;;;;;;10.97;6.30;;;6.40;99.90;;;;;;5014832;28;20625;-82
2023/02/20 06:07:38;;;;;;;9.00;4.77;;;6.40;99.90;;;;;;5015544;28;20640;-81
2023/02/20 06:10:04;;;;;;;10.40;4.60;;;6.50;99.90;;;;;;5015403;28;20435;-81
2023/02/20 06:12:29;;;;;;;14.60;7.30;;;6.40;99.90;;;;;;5014610;28;20184;-82
2023/02/20 06:14:55;;;;;;;7.70;4.97;;;6.50;99.90;;;;;;5014676;28;20181;-82
2023/02/20 06:17:20;;;;;;;9.67;6.20;;;6.40;99.90;;;;;;5015173;28;20214;-82
2023/02/20 06:19:46;;;;;;;11.00;5.20;;;6.50;99.90;;;;;;5014321;28;20199;-82
2023/02/20 06:22:11;;;;;;;12.50;6.13;;;6.60;99.90;;;;;;5015470;28;20181;-81
2023/02/20 06:24:37;;;;;;;12.40;5.93;;;6.60;99.90;;;;;;5015452;28;20585;-82
2023/02/20 06:27:03;;;;;;;10.60;6.87;;;6.60;99.90;;;;;;5015272;28;20214;-81
2023/02/20 06:29:28;;;;;;;14.47;6.40;;;6.60;99.90;;;;;;5013720;28;20526;-84
2023/02/20 06:31:58;;;;;;;10.40;6.57;;;6.50;99.90;;;;;;5015177;28;20166;-83
2023/02/20 06:34:24;;;;;;;9.77;6.53;;;6.50;99.90;;;;;;5015198;28;20180;-84
2023/02/20 06:36:50;;;;;;;10.70;6.70;;;6.50;99.90;;;;;;5015137;28;20456;-85
2023/02/20 06:39:15;;;;;;;14.43;7.67;;;6.50;99.90;;;;;;5013863;28;20440;-85
2023/02/20 06:41:41;;;;;;;15.70;7.90;;;6.50;99.90;;;;;;5015274;28;20182;-85
2023/02/20 06:44:07;;;;;;;11.00;6.33;;;6.50;99.90;;;;;;5013030;28;20678;-84
2023/02/20 06:46:33;;;;;;;13.43;7.90;;;6.50;99.90;;;;;;5014675;28;20680;-84
2023/02/20 06:48:58;;;;;;;10.57;6.37;;;6.40;99.90;;;;;;5014860;28;20180;-82
2023/02/20 06:51:32;;;;;;;11.73;7.27;;;6.50;99.90;;;;;;5014927;28;20179;-83
2023/02/20 06:53:58;;;;;;;11.50;7.20;;;6.60;99.90;;;;;;5013580;28;20186;-83
2023/02/20 06:56:29;;;;;;;13.93;7.77;;;6.70;99.90;;;;;;5014738;28;20980;-82
2023/02/20 06:58:56;;;;;;;13.07;8.80;;;6.90;99.90;;;;;;5014441;28;20436;-83
2023/02/20 07:01:25;;;;;;;16.37;9.37;;;7.00;99.90;;;;;;5013422;28;20448;-83
2023/02/20 07:03:53;;;;;;;13.47;7.70;;;7.00;99.90;;;;;;5014654;28;20511;-82
2023/02/20 07:06:19;;;;;;;14.93;8.87;;;7.10;99.90;;;;;;5014573;28;20424;-83
2023/02/20 07:08:45;;;;;;;18.07;8.93;;;7.10;99.90;;;;;;5014594;28;20423;-82
2023/02/20 07:11:11;;;;;;;13.83;10.00;;;7.10;99.90;;;;;;5014477;28;20169;-83
2023/02/20 07:13:37;;;;;;;11.57;8.70;;;7.10;99.90;;;;;;5014123;28;20170;-82
2023/02/20 07:16:03;;;;;;;11.53;8.80;;;7.10;99.90;;;;;;5014378;28;20462;-82
2023/02/20 07:18:28;;;;;;;17.10;8.27;;;7.10;99.90;;;;;;5013142;28;20707;-82
2023/02/20 07:20:54;;;;;;;15.13;10.30;;;7.10;99.90;;;;;;5014312;28;20526;-82
2023/02/20 07:23:20;;;;;;;14.30;10.00;;;7.20;99.90;;;;;;5014308;28;20646;-82
2023/02/20 07:25:49;;;;;;;17.40;10.40;;;7.10;99.90;;;;;;5014191;28;20255;-83
2023/02/20 07:28:16;;;;;;;17.57;10.90;;;7.20;99.90;;;;;;5013862;28;20170;-83
2023/02/20 07:30:42;;;;;;;19.07;10.10;;;7.30;99.90;;;;;;5014222;28;20945;-83
2023/02/20 07:33:08;;;;;;;20.00;10.43;;;7.30;99.90;;;;;;5014222;28;20422;-84
2023/02/20 07:35:33;;;;;;;16.97;10.93;;;7.40;99.90;;;;;;5014012;28;20494;-83
2023/02/20 07:37:59;;;;;;;23.27;10.67;;;7.10;99.90;;;;;;5014010;28;20214;-83
2023/02/20 07:40:24;;;;;;;15.60;12.50;;;7.30;99.90;;;;;;5013890;28;20177;-84
2023/02/20 07:42:50;;;;;;;17.90;11.77;;;7.30;99.90;;;;;;5013661;28;20645;-86
2023/02/20 07:45:15;;;;;;;17.07;14.07;;;7.30;99.90;;;;;;5012465;28;20223;-85
2023/02/20 07:47:41;;;;;;;18.53;13.47;;;7.40;99.90;;;;;;5014051;28;20244;-82
2023/02/20 07:50:06;;;;;;;16.03;10.63;;;7.30;99.90;;;;;;5013936;28;20167;-82
2023/02/20 07:52:32;;;;;;;19.23;12.43;;;7.30;99.90;;;;;;5013826;28;20185;-83
2023/02/20 07:54:57;;;;;;;22.40;13.63;;;7.40;99.90;;;;;;5013753;28;20176;-84
2023/02/20 07:57:23;;;;;;;18.43;13.00;;;7.40;99.90;;;;;;5013286;28;20302;-85
2023/02/20 07:59:48;;;;;;;18.90;13.20;;;7.40;99.90;;;;;;5013589;28;20176;-82
2023/02/20 08:02:14;;;;;;;20.67;13.83;;;7.40;99.90;;;;;;5012286;28;20273;-84
2023/02/20 08:04:39;;;;;;;23.67;15.53;;;7.40;99.90;;;;;;5013660;28;20174;-81
2023/02/20 08:07:07;;;;;;;16.50;12.53;;;7.40;99.90;;;;;;4995802;28;20203;-82
2023/02/20 08:09:33;;;;;;;19.53;13.10;;;7.40;99.90;;;;;;5013415;28;20177;-82
2023/02/20 08:11:59;;;;;;;22.50;14.47;;;7.40;99.90;;;;;;5013155;28;20504;-82
2023/02/20 08:14:24;;;;;;;19.87;14.10;;;7.40;99.90;;;;;;5012040;28;20863;-81
2023/02/20 08:16:50;;;;;;;24.30;15.97;;;7.40;99.90;;;;;;5013425;28;20201;-84
2023/02/20 08:19:15;;;;;;;20.77;15.20;;;7.40;99.90;;;;;;5013485;28;20712;-82
2023/02/20 08:21:41;;;;;;;22.97;15.30;;;7.40;99.90;;;;;;5013497;28;20246;-82
2023/02/20 08:24:06;;;;;;;30.53;17.53;;;7.40;99.90;;;;;;5013291;28;20197;-82
2023/02/20 08:26:33;;;;;;;22.00;17.30;;;7.50;99.90;;;;;;5011602;28;20187;-82
2023/02/20 08:28:59;;;;;;;27.10;17.17;;;7.50;99.90;;;;;;5011579;28;20525;-82
2023/02/20 08:31:26;;;;;;;22.03;15.57;;;7.50;99.90;;;;;;5012083;28;20467;-82
2023/02/20 08:33:51;;;;;;;21.90;15.43;;;7.50;99.90;;;;;;5013266;28;20464;-82
2023/02/20 08:36:17;;;;;;;22.27;15.67;;;7.50;99.90;;;;;;5012005;28;20475;-82
2023/02/20 08:38:43;;;;;;;20.70;15.27;;;7.50;99.90;;;;;;5013193;28;20756;-82
2023/02/20 08:41:10;;;;;;;28.47;15.80;;;7.50;99.90;;;;;;5013128;28;20454;-82
2023/02/20 08:43:37;;;;;;;25.90;15.80;;;7.50;99.90;;;;;;5012938;28;20212;-82
2023/02/20 08:46:04;;;;;;;23.17;15.20;;;7.50;99.90;;;;;;5013010;28;20497;-84
2023/02/20 08:48:30;;;;;;;25.83;17.70;;;7.50;99.90;;;;;;5013006;28;20432;-82
2023/02/20 08:50:55;;;;;;;22.83;15.73;;;7.60;99.90;;;;;;5013071;28;20427;-82
2023/02/20 08:53:21;;;;;;;25.10;14.10;;;7.60;99.90;;;;;;5012952;28;20185;-85
2023/02/20 08:55:46;;;;;;;23.30;14.77;;;7.60;99.90;;;;;;5011782;28;20271;-82
2023/02/20 08:58:12;;;;;;;27.30;14.57;;;7.60;99.90;;;;;;5012509;28;20214;-82
2023/02/20 09:00:38;;;;;;;26.43;16.10;;;7.60;99.90;;;;;;5012963;28;20178;-81
2023/02/20 09:03:06;;;;;;;25.67;14.80;;;7.60;99.90;;;;;;5012936;28;20214;-81
2023/02/20 09:05:33;;;;;;;23.87;13.70;;;7.70;99.90;;;;;;5011728;28;20274;-81
2023/02/20 09:07:58;;;;;;;22.90;14.50;;;7.70;99.90;;;;;;5012805;28;20429;-82
2023/02/20 09:10:24;;;;;;;22.90;14.30;;;7.70;99.90;;;;;;5012848;28;20421;-82
2023/02/20 09:12:49;;;;;;;23.47;14.67;;;7.80;99.90;;;;;;5012469;28;20194;-82
2023/02/20 09:15:18;;;;;;;20.20;14.30;;;7.80;99.90;;;;;;5013083;28;20617;-85
2023/02/20 09:17:47;;;;;;;21.60;14.27;;;7.80;99.90;;;;;;5012976;28;20257;-85
2023/02/20 09:20:19;;;;;;;25.80;13.77;;;7.80;99.90;;;;;;5013152;28;20451;-83
2023/02/20 09:22:45;;;;;;;17.40;13.60;;;7.80;99.90;;;;;;5012748;28;20427;-83
2023/02/20 09:25:11;;;;;;;30.23;15.57;;;7.80;99.90;;;;;;5012858;28;20460;-82
2023/02/20 09:27:37;;;;;;;33.90;15.40;;;7.80;99.90;;;;;;5012501;28;20455;-83
2023/02/20 09:30:03;;;;;;;23.63;15.70;;;7.80;99.90;;;;;;5012757;28;20906;-83
2023/02/20 09:32:29;;;;;;;27.73;14.87;;;7.70;99.90;;;;;;5011813;28;20187;-82
2023/02/20 09:34:56;;;;;;;24.43;14.60;;;7.80;99.90;;;;;;5012922;28;20894;-81
2023/02/20 09:37:22;;;;;;;25.70;14.03;;;7.80;99.90;;;;;;5012596;28;20195;-82
2023/02/20 09:39:47;;;;;;;20.60;12.17;;;7.80;99.90;;;;;;5014470;28;20420;-82
2023/02/20 09:42:19;;;;;;;22.77;14.73;;;7.80;99.90;;;;;;5015702;28;20180;-82
2023/02/20 09:44:57;;;;;;;21.43;14.20;;;7.80;99.90;;;;;;5015927;28;20256;-82
2023/02/20 09:47:52;;;;;;;26.23;13.43;;;7.80;99.90;;;;;;5016069;28;20504;-82
2023/02/20 09:50:31;;;;;;;26.93;12.97;;;7.80;99.90;;;;;;5016007;28;20420;-82
2023/02/20 09:53:04;;;;;;;22.17;12.07;;;7.80;99.90;;;;;;5014626;28;21000;-81
2023/02/20 09:55:35;;;;;;;20.83;12.90;;;7.80;99.90;;;;;;5015868;28;20425;-81
2023/02/20 09:58:03;;;;;;;23.40;13.77;;;7.80;99.90;;;;;;5015529;28;20492;-82
2023/02/20 10:00:46;;;;;;;26.37;13.90;;;7.80;99.90;;;;;;5015859;28;20539;-82
2023/02/20 10:03:29;;;;;;;23.17;13.70;;;;;;;;;;5014587;28;20432;-82
2023/02/20 10:06:06;;;;;;;22.73;13.57;;;7.80;99.90;;;;;;5015719;28;20403;-83
2023/02/20 10:08:31;;;;;;;27.93;14.47;;;7.80;99.90;;;;;;5015703;28;20423;-82
2023/02/20 10:11:02;;;;;;;26.47;16.10;;;8.00;99.90;;;;;;5014348;28;20784;-82
2023/02/20 10:13:51;;;;;;;21.50;12.93;;;8.00;99.90;;;;;;5015113;28;20172;-82
2023/02/20 10:16:23;;;;;;;23.73;13.10;;;;;;;;;;5015414;28;20466;-82
2023/02/20 10:19:24;;;;;;;27.10;14.80;;;8.00;99.90;;;;;;5015229;28;20487;-81
2023/02/20 10:22:10;;;;;;;26.30;14.07;;;8.10;99.90;;;;;;5015291;28;20491;-82
2023/02/20 10:25:17;;;;;;;29.73;15.10;;;8.10;99.90;;;;;;5015240;28;20470;-82
2023/02/20 10:27:53;;;;;;;24.20;13.83;;;;;;;;;;4935064;29;20432;-81
2023/02/20 10:30:30;;;;;;;20.40;15.20;;;;;;;;;;5004606;28;20423;-80
2023/02/20 10:33:00;;;;;;;26.23;13.30;;;;;;;;;;5015250;28;20412;-83
2023/02/20 10:35:35;;;;;;;22.60;12.90;;;8.20;99.90;;;;;;5013416;28;21007;-81
2023/02/20 10:38:06;;;;;;;21.50;13.30;;;8.20;99.90;;;;;;5013007;28;20479;-82
2023/02/20 10:40:56;;;;;;;23.67;13.20;;;8.20;99.90;;;;;;5014555;28;20427;-83
2023/02/20 10:43:33;;;;;;;22.63;12.10;;;8.20;99.90;;;;;;5014652;28;20504;-82
2023/02/20 10:46:28;;;;;;;21.00;12.37;;;8.30;99.90;;;;;;5015591;28;20464;-82
2023/02/20 10:48:58;;;;;;;23.53;10.80;;;8.40;99.90;;;;;;5015312;28;20458;-85
2023/02/20 10:51:29;;;;;;;22.70;13.13;;;8.50;99.90;;;;;;5014020;28;20753;-82
2023/02/20 10:54:08;;;;;;;21.13;11.23;;;8.40;99.90;;;;;;5015318;28;20501;-82
2023/02/20 10:56:56;;;;;;;17.70;8.90;;;8.50;99.90;;;;;;4974037;28;20438;-86
2023/02/20 10:59:53;;;;;;;18.07;9.37;;;8.50;99.90;;;;;;5014369;28;20429;-89
2023/02/20 11:02:23;;;;;;;17.70;9.90;;;8.60;99.90;;;;;;5012840;28;20459;-83
2023/02/20 11:04:57;;;;;;;20.23;9.60;;;8.70;99.90;;;;;;5014149;28;20558;-81
2023/02/20 11:07:23;;;;;;;33.80;11.70;;;8.70;99.90;;;;;;5014117;28;20416;-81
2023/02/20 11:09:48;;;;;;;12.43;7.90;;;8.80;99.90;;;;;;5014272;28;20420;-86
2023/02/20 11:12:33;;;;;;;14.00;7.83;;;8.80;99.90;;;;;;5012343;28;20543;-84
2023/02/20 11:15:05;;;;;;;16.40;7.30;;;8.80;99.90;;;;;;5012712;28;20178;-84
2023/02/20 11:17:32;;;;;;;14.80;7.10;;;8.90;99.90;;;;;;5013714;28;20500;-81
2023/02/20 11:20:00;;;;;;;10.70;7.30;;;;;;;;;;5012492;28;20430;-84
2023/02/20 11:22:44;;;;;;;12.00;6.53;;;8.90;99.90;;;;;;5013631;28;20464;-81
2023/02/20 11:25:19;;;;;;;16.90;7.10;;;9.00;99.90;;;;;;5013571;28;20765;-82
2023/02/20 11:27:53;;;;;;;12.47;6.50;;;9.00;99.90;;;;;;5013373;28;20432;-82
2023/02/20 11:30:30;;;;;;;9.90;6.87;;;9.00;99.90;;;;;;5013591;28;20419;-84
2023/02/20 11:33:18;;;;;;;12.20;6.40;;;9.10;99.90;;;;;;5013813;28;20472;-91
2023/02/20 11:35:48;;;;;;;11.90;5.57;;;9.20;99.90;;;;;;5008096;28;20471;-82
2023/02/20 11:38:13;;;;;;;8.67;4.37;;;9.20;99.90;;;;;;5012072;28;20469;-81
2023/02/20 11:40:39;;;;;;;13.80;5.90;;;9.20;99.90;;;;;;5013276;28;20463;-84
2023/02/20 11:43:26;;;;;;;8.70;4.87;;;9.20;99.90;;;;;;5013119;28;20175;-81
2023/02/20 11:46:20;;;;;;;7.57;4.70;;;9.50;99.90;;;;;;5013484;28;20477;-84
2023/02/20 11:48:59;;;;;;;10.27;4.30;;;9.30;99.90;;;;;;5013807;28;20416;-81
2023/02/20 11:51:43;;;;;;;7.07;3.60;;;9.30;99.90;;;;;;5013793;28;20564;-81
2023/02/20 11:54:13;;;;;;;7.70;3.67;;;;;;;;;;5013633;28;20430;-80
2023/02/20 11:56:53;;;;;;;9.70;3.87;;;;;;;;;;4972667;28;20474;-84
2023/02/20 11:59:26;;;;;;;8.53;2.90;;;9.40;99.90;;;;;;5013634;28;20413;-84
2023/02/20 12:01:52;;;;;;;10.60;2.90;;;9.50;99.90;;;;;;5012814;28;20423;-81
2023/02/20 12:04:23;;;;;;;7.53;3.10;;;9.50;99.90;;;;;;5012433;28;20756;-84
2023/02/20 12:06:49;;;;;;;8.90;2.73;;;9.50;99.90;;;;;;5013350;28;20251;-81
2023/02/20 12:09:27;;;;;;;11.87;2.77;;;9.60;99.90;;;;;;5011934;28;20510;-82
2023/02/20 12:11:55;;;;;;;7.00;2.60;;;9.60;99.90;;;;;;5012985;28;20256;-82
2023/02/20 12:14:23;;;;;;;7.83;2.40;;;9.60;99.90;;;;;;5013211;28;20788;-84
2023/02/20 12:16:49;;;;;;;8.80;2.97;;;9.70;99.90;;;;;;5013182;28;20511;-84
2023/02/20 12:19:50;;;;;;;5.73;1.87;;;9.70;99.90;;;;;;5011816;28;20564;-81
2023/02/20 12:22:25;;;;;;;8.97;3.50;;;9.70;99.90;;;;;;5011969;28;20174;-83
2023/02/20 12:25:02;;;;;;;5.13;2.27;;;9.80;99.90;;;;;;5013156;28;20416;-83
2023/02/20 12:28:01;;;;;;;5.80;1.70;;;9.80;99.90;;;;;;5012303;28;20439;-83
2023/02/20 12:30:54;;;;;;;4.80;1.70;;;9.80;99.90;;;;;;5011911;28;20426;-84
2023/02/20 12:33:47;;;;;;;5.63;1.60;;;9.80;99.90;;;;;;5013208;28;20412;-84
2023/02/20 12:36:31;;;;;;;3.40;1.87;;;9.90;99.90;;;;;;5013056;28;20418;-83
2023/02/20 12:39:26;;;;;;;8.57;1.83;;;9.90;99.90;;;;;;5011667;28;20533;-84
2023/02/20 12:42:31;;;;;;;10.83;2.73;;;9.90;99.90;;;;;;4989427;28;20489;-87
2023/02/20 12:45:25;;;;;;;5.40;1.33;;;9.90;99.90;;;;;;5012859;28;20485;-84
2023/02/20 12:48:21;;;;;;;4.70;2.00;;;9.90;99.90;;;;;;5011759;28;20457;-83
2023/02/20 12:51:03;;;;;;;3.60;1.37;;;9.90;99.90;;;;;;4982203;28;20453;-83
2023/02/20 12:53:50;;;;;;;7.23;1.70;;;9.90;99.90;;;;;;5012914;28;20413;-85
2023/02/20 12:56:38;;;;;;;6.97;2.00;;;9.90;99.90;;;;;;5011319;28;20818;-85
2023/02/20 12:59:26;;;;;;;9.63;1.87;;;9.90;99.90;;;;;;5012580;28;20475;-85
2023/02/20 13:01:53;;;;;;;6.63;1.43;;;9.90;99.90;;;;;;4983593;28;20509;-83
2023/02/20 13:04:29;;;;;;;5.13;2.07;;;10.00;99.90;;;;;;4995481;28;20858;-81
2023/02/20 13:07:04;;;;;;;4.47;2.00;;;10.00;99.90;;;;;;5012848;28;20414;-82
2023/02/20 13:09:39;;;;;;;3.50;2.00;;;10.00;99.90;;;;;;5013542;28;20517;-86
2023/02/20 13:12:16;;;;;;;4.20;1.40;;;10.00;99.90;;;;;;5013061;28;20410;-83
2023/02/20 13:15:06;;;;;;;5.17;1.63;;;10.00;99.90;;;;;;5016408;28;20449;-83
2023/02/20 13:17:48;;;;;;;5.23;1.77;;;10.00;99.90;;;;;;5015658;28;20489;-82
2023/02/20 13:20:16;;;;;;;7.70;1.63;;;10.10;99.90;;;;;;5013912;28;20427;-84
2023/02/20 13:22:42;;;;;;;10.33;1.30;;;10.10;99.90;;;;;;5015672;28;20472;-83
2023/02/20 13:25:38;;;;;;;4.73;3.07;;;10.10;99.90;;;;;;5016136;28;20427;-84
2023/02/20 13:28:41;;;;;;;4.70;1.83;;;10.10;99.90;;;;;;5016063;28;20177;-82
2023/02/20 13:31:30;;;;;;;5.00;2.03;;;10.10;99.90;;;;;;5016254;28;20428;-82